createdAt,value
2017-05-24T00:00:13.284Z,0
2017-05-24T00:10:13.250Z,0
2017-05-24T00:20:13.241Z,0
2017-05-24T00:30:13.546Z,0
2017-05-24T00:40:13.268Z,0
2017-05-24T00:50:13.331Z,0
2017-05-24T01:00:13.221Z,0
2017-05-24T01:10:13.246Z,0
2017-05-24T01:20:13.336Z,0
2017-05-24T01:30:13.282Z,0
2017-05-24T01:40:13.265Z,0
2017-05-24T01:50:13.322Z,0
2017-05-24T02:00:13.237Z,0
2017-05-24T02:10:13.342Z,0
2017-05-24T02:20:13.213Z,0
2017-05-24T02:30:13.236Z,4
2017-05-24T02:40:13.261Z,0
2017-05-24T02:50:13.227Z,4
2017-05-24T03:00:13.251Z,12
2017-05-24T03:10:13.291Z,60
2017-05-24T03:20:13.261Z,240
2017-05-24T03:30:13.391Z,412
2017-05-24T03:40:13.203Z,940
2017-05-24T03:50:13.240Z,1476
2017-05-24T04:00:13.326Z,2176
2017-05-24T04:10:13.257Z,2460
2017-05-24T04:20:13.227Z,2116
2017-05-24T04:30:13.207Z,3340
2017-05-24T04:40:13.210Z,3284
2017-05-24T04:50:13.334Z,3884
2017-05-24T05:00:13.189Z,5704
2017-05-24T05:10:13.241Z,8084
2017-05-24T05:20:13.320Z,6868
2017-05-24T05:30:13.371Z,13224
2017-05-24T05:40:13.212Z,10900
2017-05-24T05:50:13.218Z,17392
2017-05-24T06:00:13.241Z,14964
2017-05-24T06:10:13.341Z,23904
2017-05-24T06:20:13.284Z,22400
2017-05-24T06:30:13.395Z,9316
2017-05-24T06:40:13.312Z,7908
2017-05-24T06:50:13.264Z,8564
2017-05-24T07:00:13.265Z,14944
2017-05-24T07:10:13.225Z,9056
2017-05-24T07:20:13.214Z,8000
2017-05-24T07:40:13.303Z,14368
2017-05-24T07:50:13.370Z,25856
2017-05-24T08:00:13.320Z,21632
2017-05-24T08:10:13.270Z,19264
2017-05-24T08:20:13.243Z,29760
2017-05-24T08:30:13.255Z,26752
2017-05-24T08:40:13.263Z,21600
2017-05-24T08:50:13.241Z,18028
2017-05-24T09:00:13.315Z,14328
2017-05-24T09:10:13.402Z,23392
2017-05-24T09:20:13.274Z,24640
2017-05-24T09:30:13.283Z,24448
2017-05-24T09:40:13.240Z,23744
2017-05-24T09:50:13.261Z,22304
2017-05-24T10:00:13.286Z,24672
2017-05-24T10:10:13.373Z,22528
2017-05-24T10:20:13.320Z,18040
2017-05-24T10:30:13.350Z,23232
2017-05-24T10:40:13.452Z,19904
2017-05-24T10:50:13.610Z,21632
2017-05-24T11:00:13.289Z,21632
2017-05-24T11:10:13.511Z,21792
2017-05-24T11:20:13.293Z,20640
2017-05-24T11:30:13.280Z,23520
2017-05-24T11:40:13.263Z,20960
2017-05-24T11:50:13.528Z,19680
2017-05-24T12:00:13.276Z,19776
2017-05-24T12:10:13.290Z,21888
2017-05-24T12:20:13.298Z,20032
2017-05-24T12:30:13.305Z,15752
2017-05-24T12:40:13.293Z,21760
2017-05-24T12:50:13.280Z,18752
2017-05-24T13:00:13.311Z,7832
2017-05-24T13:10:13.434Z,6880
2017-05-24T13:20:13.324Z,4988
2017-05-24T13:30:23.946Z,2676
2017-05-24T13:40:13.510Z,3740
2017-05-24T13:50:13.659Z,9100
2017-05-24T14:00:13.446Z,5856
2017-05-24T14:10:13.411Z,14824
2017-05-24T14:20:13.458Z,13604
2017-05-24T14:30:13.365Z,12712
2017-05-24T14:40:13.459Z,13392
2017-05-24T14:50:13.378Z,5292
2017-05-24T15:00:13.384Z,9996
2017-05-24T15:10:13.387Z,8168
2017-05-24T15:20:13.366Z,6132
2017-05-24T15:30:13.384Z,7832
2017-05-24T15:40:13.372Z,8876
2017-05-24T15:50:13.420Z,9644
2017-05-24T16:00:13.365Z,7916
2017-05-24T16:10:13.461Z,7856
2017-05-24T16:20:13.352Z,8132
2017-05-24T16:30:13.428Z,5120
2017-05-24T16:40:13.382Z,6536
2017-05-24T16:50:13.378Z,5264
2017-05-24T17:00:13.356Z,5528
2017-05-24T17:10:13.424Z,5104
2017-05-24T17:20:13.351Z,3976
2017-05-24T17:30:13.391Z,3528
2017-05-24T17:40:13.384Z,4624
2017-05-24T17:50:13.362Z,3656
2017-05-24T18:00:13.339Z,2400
2017-05-24T18:10:13.368Z,1968
2017-05-24T18:20:13.427Z,1952
2017-05-24T18:30:13.381Z,1608
2017-05-24T18:40:13.371Z,1532
2017-05-24T18:50:13.358Z,1252
2017-05-24T19:00:13.392Z,768
2017-05-24T19:10:13.410Z,600
2017-05-24T19:20:13.355Z,260
2017-05-24T19:30:13.369Z,116
2017-05-24T19:40:13.419Z,52
2017-05-24T19:50:13.372Z,24
2017-05-24T20:00:13.375Z,12
2017-05-24T20:10:13.439Z,4
2017-05-24T20:20:13.423Z,4
2017-05-24T20:30:13.631Z,4
2017-05-24T20:40:16.918Z,4
2017-05-24T20:50:14.050Z,0
2017-05-24T21:00:13.505Z,0
2017-05-24T21:10:13.923Z,0
2017-05-24T21:20:13.394Z,0
2017-05-24T21:30:13.803Z,0
2017-05-24T21:40:13.410Z,0
2017-05-24T21:50:13.509Z,0
2017-05-24T22:00:13.761Z,0
2017-05-24T22:10:13.420Z,0
2017-05-24T22:20:13.454Z,0
2017-05-24T22:30:13.483Z,0
2017-05-24T22:40:13.496Z,0
2017-05-24T22:50:13.433Z,0
2017-05-24T23:00:13.390Z,0
2017-05-24T23:10:13.455Z,0
2017-05-24T23:20:13.416Z,0
2017-05-24T23:30:13.375Z,0
2017-05-24T23:40:13.462Z,0
2017-05-24T23:50:13.394Z,0
